Weather observations for the past three days for
Batesville, Batesville Regional Airport
Metric (Imperial)
Date Time (cdt) Wind (kph) Vis. (km) Weather Sky Cond. Temperature (ºC) Relative Humidity Wind Chill (°C) Heat Index (°C) Pressure Precipitation (cm)
Air Dwpt 6 hour altimeter (cm) sea level (mb) 1 hr 3 hr 6 hr
Max. Min.
08 21:56 SW 7 16.09 A Few Clouds FEW110 18.9 10.6 59% 75.84 1010.8
08 20:56 S 7 16.09 Fair CLR 18.9 10.6 59% 75.79 1010.1
08 19:56 S 6 16.09 Fair CLR 20 11.1 57% 75.77 1009.7
08 18:56 S 9 16.09 Fair CLR 21.7 10.6 24.4 21.7 49% 75.74 1009.7
08 17:56 S 15 16.09 Fair CLR 23.3 9.4 41% 75.74 1009.7
08 16:56 SW 15 16.09 Fair CLR 23.9 10 42% 25 75.77 1010.0
08 15:56 Vrbl 9 16.09 Fair CLR 23.9 10.6 43% 25 75.82 1010.6
08 14:56 Vrbl 11 G 26 16.09 Fair CLR 23.9 11.1 45% 25 75.87 1011.2
08 13:56 S 15 8.05 Fair with Haze CLR 23.3 11.1 46% 75.92 1012.0
08 12:56 S 20 G 31 16.09 Fair CLR 22.2 11.1 22.2 12.8 50% 76.02 1013.3
08 11:56 Vrbl 11 16.09 Fair CLR 21.7 11.1 51% 76.1 1014.4
08 10:56 SW 19 16.09 Fair CLR 20.6 11.1 55% 76.17 1015.3
08 09:56 Vrbl 9 16.09 Fair CLR 19.4 11.1 59% 76.2 1015.7
08 08:56 SW 7 16.09 Fair CLR 17.8 10 60% 76.25 1016.4
08 07:56 SW 7 16.09 Fair CLR 16.1 9.4 65% 76.25 1016.4
08 06:56 Calm 16.09 Fair CLR 13.3 9.4 13.9 10.6 77% 76.23 1016.3
08 05:56 S 6 16.09 Fair CLR 12.8 8.9 77% 76.2 1015.6
08 04:56 S 11 16.09 Fair CLR 12.8 8.9 77% 76.2 1015.6
08 03:56 SE 7 16.09 Fair CLR 11.1 9.4 89% 76.2 1015.9
08 02:56 Calm 16.09 Fair CLR 11.1 9.4 89% 76.2 1015.9
08 01:56 Calm 16.09 Fair CLR 11.7 9.4 86% 76.25 1016.4
08 00:56 Calm 16.09 Fair CLR 12.8 10 20.6 12.8 83% 76.25 1016.7
07 23:56 SE 6 16.09 Fair CLR 14.4 10 75% 76.25 1016.5
07 22:56 S 7 16.09 Fair CLR 15 9.4 69% 76.25 1016.5
07 21:56 SE 7 16.09 Fair CLR 15.6 9.4 67% 76.23 1016.1
07 20:56 SE 6 16.09 Fair CLR 16.1 9.4 65% 76.2 1015.7
07 19:56 Calm 16.09 Fair CLR 18.3 8.3 52% 76.15 1015.1
07 18:56 SE 7 16.09 Fair CLR 20.6 6.7 22.2 18.3 41% 76.15 1015.1
07 17:56 NW 7 16.09 Fair CLR 21.7 5.6 35% 76.15 1015.2
07 16:56 Calm 16.09 Fair CLR 21.1 5 35% 76.15 1015.3
07 15:56 W 7 16.09 Fair CLR 20.6 5 36% 76.2 1015.6
07 14:56 Vrbl 6 16.09 Fair CLR 20 5 38% 76.23 1016.3
07 13:56 Vrbl 6 16.09 Fair CLR 19.4 3.9 36% 76.33 1017.3
07 12:56 W 7 16.09 Fair CLR 18.3 6.1 18.9 7.8 45% 76.35 1017.8
07 11:56 Vrbl 7 16.09 Fair CLR 17.2 5.6 47% 76.43 1018.9
07 10:56 Calm 16.09 Fair CLR 16.7 6.1 50% 76.45 1019.1
07 09:56 NE 7 16.09 Fair CLR 14.4 7.2 62% 76.48 1019.6
07 08:56 Calm 16.09 Fair CLR 11.7 6.7 72% 76.48 1019.6
07 07:56 W 6 16.09 Fair CLR 9.4 7.2 86% 76.45 1019.5
07 06:56 NW 6 16.09 Fair CLR 7.8 6.7 10 7.2 93% 76.4 1018.9
07 05:56 NW 6 16.09 Fair CLR 7.2 6.7 97% 76.4 1018.6
07 04:56 Calm 16.09 Fair CLR 7.8 7.2 96% 76.33 1017.7
07 03:56 Calm 16.09 Fair CLR 8.3 8.3 100% 76.35 1017.9
07 02:56 NW 6 16.09 Fair CLR 9.4 8.9 97% 76.3 1017.5
07 01:56 NW 6 16.09 Fair CLR 10 9.4 96% 76.3 1017.5
07 00:56 Calm 16.09 Fair CLR 10 10 13.9 10 100% 76.33 1017.5
06 23:56 NW 6 16.09 Fair CLR 11.1 10.6 97% 76.3 1017.4
06 22:56 Calm 16.09 Overcast BKN090 OVC110 12.2 11.1 93% 76.3 1017.2
06 21:56 Calm 16.09 Mostly Cloudy FEW080 BKN120 11.7 10.6 93% 76.25 1016.8
06 20:56 Calm 16.09 Partly Cloudy SCT100 12.2 10.6 90% 76.23 1016.3
06 19:56 Calm 16.09 Mostly Cloudy BKN110 13.3 10 81% 76.2 1015.9
06 18:56 SE 7 16.09 A Few Clouds FEW110 13.9 9.4 15.6 12.8 74% 76.2 1015.8
06 17:56 E 6 16.09 Partly Cloudy SCT110 15 8.3 64% 76.2 1015.8
06 16:56 NE 7 16.09 A Few Clouds FEW120 14.4 8.3 67% 76.1 1014.7
06 15:56 NE 7 16.09 Fair CLR 13.3 7.8 70% 76.15 1015.3
06 14:56 Calm 16.09 Light Rain FEW050 12.8 8.3 74% 76.25 1016.8
06 13:56 NE 7 16.09 Light Rain FEW120 13.3 6.7 65% 76.3 1017.2
06 12:56 Vrbl 6 16.09 Partly Cloudy FEW041 SCT110 12.8 6.7 13.9 8.9 67% 76.35 1017.9
06 11:56 Vrbl 11 16.09 A Few Clouds FEW045 13.3 7.2 67% 76.25 1016.6
06 10:56 NE 11 16.09 Overcast FEW024 OVC047 12.8 7.2 69% 76.28 1017.0
06 09:56 N 11 16.09 Overcast OVC039 11.1 7.2 77% 76.28 1016.9
06 08:56 Vrbl 7 16.09 Overcast OVC035 10 7.8 86% 9 76.25 1016.4
06 07:56 N 7 16.09 Overcast OVC035 8.9 7.2 89% 8 76.2 1015.9
06 06:56 Vrbl 6 16.09 Overcast OVC031 8.9 7.2 10 8.3 89% 76.1 1014.5
06 05:56 Vrbl 7 16.09 Overcast SCT016 OVC027 8.9 7.2 89% 8 76.05 1013.6
06 04:56 Vrbl 6 16.09 Overcast OVC010 8.9 8.3 96% 76 1013.0
06 03:56 N 13 16.09 Overcast OVC008 8.9 8.3 96% 7 75.95 1012.6
06 02:56 Vrbl 9 4.83 Light Rain Fog/Mist OVC006 9.4 8.9 97% 8 75.9 1011.7
06 01:56 Vrbl 9 16.09 Overcast OVC008 9.4 8.9 97% 8 75.87 1011.3
06 00:56 Vrbl 7 14.48 Overcast OVC006 10 9.4 21.1 10 96% 9 75.84 1011.0 0.33 0.69
05 23:56 Vrbl 7 9.66 Thunderstorm in Vicinity Fog/Mist OVC006 11.1 10.6 97% 75.77 1010.1
05 22:56 NW 9 16.09 Overcast OVC008 12.2 11.7 97% 75.77 1010.1 0.03
Date Time (cdt) Wind (kph) Vis. (km) Weather Sky Cond. Air Dwpt Max. Min. Relative Humidity Wind Chill (°C) Heat Index (°C) altimeter (cm) sea level (mb) 1 hr 3 hr 6 hr
6 hour
Temperature (ºC) Pressure Precipitation (cm)